Overview Statistics Trail Chart Weather Telemetry Raw packets
 

This is the latest recevied weather packets stored in our database for station/object OE6ATD-13. If no packets are shown the sender has not sent any weather packets the latest 10 day(s).

<< 15 16 17 18 19 20 21 >>
Time Temp. Humidity Pressure Rain* Wind** Luminosity Snow
1788463223 19.44° C 75% 1019.3 hPa 0 mm - 0 W/m² -
1788462619 20° C 75% 1019 hPa 0 mm - 0 W/m² -
1788462029 20° C 75% 1019 hPa 0 mm - 0 W/m² -
1788461425 20° C 74% 1019 hPa 0 mm - 0 W/m² -
1788460821 20.56° C 73% 1019 hPa 0 mm - 0 W/m² -
1788460217 20.56° C 72% 1018.8 hPa 0 mm - 0 W/m² -
1788459628 21.11° C 71% 1018.9 hPa 0 mm - 0 W/m² -
1788459024 21.67° C 70% 1018.9 hPa 0 mm - 0 W/m² -
1788458419 22.22° C 70% 1018.8 hPa 0 mm - 0 W/m² -
1788457815 22.78° C 63% 1018.6 hPa 0 mm - 0 W/m² -
1788457226 23.33° C 61% 1018.6 hPa 0 mm - 0 W/m² -
1788456622 24.44° C 59% 1018.6 hPa 0 mm - 2 W/m² -
1788456018 25.56° C 52% 1018.6 hPa 0 mm - 7 W/m² -
1788455429 27.78° C 45% 1018.5 hPa 0 mm - 17 W/m² -
1788454822 29.44° C 44% 1018.4 hPa 0 mm - 27 W/m² -
1788454216 29.44° C 42% 1018.5 hPa 0 mm - 35 W/m² -
1788453627 30° C 41% 1018.4 hPa 0 mm - 51 W/m² -
1788453023 31.11° C 38% 1018.3 hPa 0 mm - 59 W/m² -
1788452419 30.56° C 35% 1018.3 hPa 0 mm - 51 W/m² -
1788451830 31.11° C 32% 1018.2 hPa 0 mm - 61 W/m² -
1788451225 31.11° C 32% 1018.3 hPa 0 mm - 90 W/m² -
1788450621 31.11° C 32% 1018.3 hPa 0 mm - 119 W/m² -
1788450017 31.11° C 31% 1018.4 hPa 0 mm - 150 W/m² -
1788449428 31.67° C 31% 1018.5 hPa 0 mm - 183 W/m² -
1788448824 31.67° C 32% 1018.5 hPa 0 mm - 212 W/m² -

* Rain latest hour (hover to see other rain measurements)
** Current wind speed in m/s (hover to see current wind gust speed)